sensor_id;sensor_type;location;lat;lon;timestamp;pressure;altitude;pressure_sealevel;temperature;humidity
596;BME280;19946;49.306;11.350;2023-02-18T00:02:06;97031.09;;;8.16;100.00
596;BME280;19946;49.306;11.350;2023-02-18T00:05:06;96934.44;;;7.56;100.00
596;BME280;19946;49.306;11.350;2023-02-18T00:08:07;96951.97;;;7.64;100.00
596;BME280;19946;49.306;11.350;2023-02-18T00:11:08;97028.56;;;8.01;100.00
596;BME280;19946;49.306;11.350;2023-02-18T00:14:11;97022.72;;;7.99;100.00
596;BME280;19946;49.306;11.350;2023-02-18T00:17:12;96942.88;;;7.58;100.00
596;BME280;19946;49.306;11.350;2023-02-18T00:20:12;97025.28;;;8.12;100.00
596;BME280;19946;49.306;11.350;2023-02-18T00:23:13;97007.94;;;8.01;100.00
596;BME280;19946;49.306;11.350;2023-02-18T00:26:14;96917.44;;;7.54;100.00
596;BME280;19946;49.306;11.350;2023-02-18T00:29:15;97026.66;;;8.18;100.00
596;BME280;19946;49.306;11.350;2023-02-18T00:32:15;96949.41;;;7.64;100.00
596;BME280;19946;49.306;11.350;2023-02-18T00:35:16;97023.16;;;8.19;100.00
596;BME280;19946;49.306;11.350;2023-02-18T00:38:17;97022.72;;;8.12;100.00
596;BME280;19946;49.306;11.350;2023-02-18T00:41:18;96940.22;;;7.60;100.00
596;BME280;19946;49.306;11.350;2023-02-18T00:44:20;96965.41;;;7.82;100.00
596;BME280;19946;49.306;11.350;2023-02-18T00:47:20;96982.66;;;7.94;100.00
596;BME280;19946;49.306;11.350;2023-02-18T00:50:21;97005.38;;;8.01;100.00
596;BME280;19946;49.306;11.350;2023-02-18T00:53:21;96999.47;;;7.87;100.00
596;BME280;19946;49.306;11.350;2023-02-18T00:56:22;97027.38;;;8.20;100.00
596;BME280;19946;49.306;11.350;2023-02-18T00:59:22;96913.78;;;7.44;100.00
596;BME280;19946;49.306;11.350;2023-02-18T01:02:22;96905.72;;;7.36;100.00
596;BME280;19946;49.306;11.350;2023-02-18T01:05:23;97001.34;;;7.97;100.00
596;BME280;19946;49.306;11.350;2023-02-18T01:08:23;96958.16;;;7.61;100.00
596;BME280;19946;49.306;11.350;2023-02-18T01:11:24;97002.88;;;7.87;100.00
596;BME280;19946;49.306;11.350;2023-02-18T01:14:24;97021.97;;;7.97;100.00
596;BME280;19946;49.306;11.350;2023-02-18T01:17:25;97036.53;;;7.98;100.00
596;BME280;19946;49.306;11.350;2023-02-18T01:20:25;96996.44;;;7.80;100.00
596;BME280;19946;49.306;11.350;2023-02-18T01:23:25;97004.91;;;7.82;100.00
596;BME280;19946;49.306;11.350;2023-02-18T01:26:26;97027.34;;;7.94;100.00
596;BME280;19946;49.306;11.350;2023-02-18T01:29:26;96957.81;;;7.53;100.00
596;BME280;19946;49.306;11.350;2023-02-18T01:32:28;96913.72;;;7.18;100.00
596;BME280;19946;49.306;11.350;2023-02-18T01:35:28;96964.81;;;7.51;100.00
596;BME280;19946;49.306;11.350;2023-02-18T01:38:29;96941.59;;;7.39;100.00
596;BME280;19946;49.306;11.350;2023-02-18T01:41:29;96953.38;;;7.43;100.00
596;BME280;19946;49.306;11.350;2023-02-18T01:44:32;96986.50;;;7.61;100.00
596;BME280;19946;49.306;11.350;2023-02-18T01:47:33;96967.16;;;7.42;100.00
596;BME280;19946;49.306;11.350;2023-02-18T01:50:35;96959.63;;;7.39;100.00
596;BME280;19946;49.306;11.350;2023-02-18T01:53:43;96946.00;;;7.37;100.00
596;BME280;19946;49.306;11.350;2023-02-18T01:56:51;96964.88;;;7.37;100.00
596;BME280;19946;49.306;11.350;2023-02-18T01:59:57;96912.22;;;7.02;100.00
596;BME280;19946;49.306;11.350;2023-02-18T02:02:58;96996.19;;;7.58;100.00
596;BME280;19946;49.306;11.350;2023-02-18T02:05:59;96978.94;;;7.46;100.00
596;BME280;19946;49.306;11.350;2023-02-18T02:09:02;96975.13;;;7.51;100.00
596;BME280;19946;49.306;11.350;2023-02-18T02:15:31;97014.25;;;7.70;100.00
596;BME280;19946;49.306;11.350;2023-02-18T02:18:56;97003.34;;;7.67;100.00
596;BME280;19946;49.306;11.350;2023-02-18T02:22:17;96998.88;;;7.69;100.00
596;BME280;19946;49.306;11.350;2023-02-18T02:25:48;97003.53;;;7.64;100.00
596;BME280;19946;49.306;11.350;2023-02-18T02:29:04;96932.56;;;7.19;100.00
596;BME280;19946;49.306;11.350;2023-02-18T02:32:20;96917.38;;;7.14;100.00
596;BME280;19946;49.306;11.350;2023-02-18T02:35:36;96992.59;;;7.60;100.00
596;BME280;19946;49.306;11.350;2023-02-18T02:46:02;96986.50;;;7.61;100.00
596;BME280;19946;49.306;11.350;2023-02-18T02:49:31;96922.69;;;7.25;100.00
596;BME280;19946;49.306;11.350;2023-02-18T02:52:37;96970.63;;;7.55;100.00
596;BME280;19946;49.306;11.350;2023-02-18T02:55:39;96918.66;;;7.21;100.00
596;BME280;19946;49.306;11.350;2023-02-18T02:58:42;96964.91;;;7.50;100.00
596;BME280;19946;49.306;11.350;2023-02-18T03:08:38;96971.34;;;7.57;100.00
596;BME280;19946;49.306;11.350;2023-02-18T03:11:51;96916.72;;;7.25;100.00
596;BME280;19946;49.306;11.350;2023-02-18T03:15:07;96897.53;;;7.16;100.00
596;BME280;19946;49.306;11.350;2023-02-18T03:21:42;96889.88;;;7.02;100.00
596;BME280;19946;49.306;11.350;2023-02-18T03:24:51;96976.69;;;7.54;100.00
596;BME280;19946;49.306;11.350;2023-02-18T03:27:55;96958.84;;;7.51;100.00
596;BME280;19946;49.306;11.350;2023-02-18T03:31:01;96944.16;;;7.39;100.00
596;BME280;19946;49.306;11.350;2023-02-18T03:34:10;96972.16;;;7.57;100.00
596;BME280;19946;49.306;11.350;2023-02-18T03:37:12;96942.41;;;7.39;100.00
596;BME280;19946;49.306;11.350;2023-02-18T03:40:14;96972.38;;;7.54;100.00
596;BME280;19946;49.306;11.350;2023-02-18T03:43:17;96928.66;;;7.26;100.00
596;BME280;19946;49.306;11.350;2023-02-18T03:46:17;96859.38;;;6.82;100.00
596;BME280;19946;49.306;11.350;2023-02-18T03:49:18;96978.72;;;7.49;100.00
596;BME280;19946;49.306;11.350;2023-02-18T03:52:20;96959.72;;;7.37;100.00
596;BME280;19946;49.306;11.350;2023-02-18T03:55:21;96973.56;;;7.49;100.00
596;BME280;19946;49.306;11.350;2023-02-18T03:58:21;96975.13;;;7.51;100.00
596;BME280;19946;49.306;11.350;2023-02-18T04:01:22;96978.63;;;7.50;100.00
596;BME280;19946;49.306;11.350;2023-02-18T04:04:22;96968.63;;;7.46;100.00
596;BME280;19946;49.306;11.350;2023-02-18T04:07:22;96941.66;;;7.24;100.00
596;BME280;19946;49.306;11.350;2023-02-18T04:10:23;96926.41;;;7.21;100.00
596;BME280;19946;49.306;11.350;2023-02-18T04:13:23;96942.38;;;7.26;100.00
596;BME280;19946;49.306;11.350;2023-02-18T04:16:23;96965.94;;;7.47;100.00
596;BME280;19946;49.306;11.350;2023-02-18T04:19:24;96980.19;;;7.53;100.00
596;BME280;19946;49.306;11.350;2023-02-18T04:22:24;96904.09;;;7.08;100.00
596;BME280;19946;49.306;11.350;2023-02-18T04:25:24;96905.47;;;7.13;100.00
596;BME280;19946;49.306;11.350;2023-02-18T04:28:25;96962.66;;;7.45;100.00
596;BME280;19946;49.306;11.350;2023-02-18T04:31:25;96887.47;;;6.99;100.00
596;BME280;19946;49.306;11.350;2023-02-18T04:34:25;96976.69;;;7.54;100.00
596;BME280;19946;49.306;11.350;2023-02-18T04:37:26;96927.31;;;7.20;100.00
596;BME280;19946;49.306;11.350;2023-02-18T04:40:26;96857.31;;;6.74;100.00
596;BME280;19946;49.306;11.350;2023-02-18T04:43:29;96923.50;;;7.26;100.00
596;BME280;19946;49.306;11.350;2023-02-18T04:46:30;96945.91;;;7.38;100.00
596;BME280;19946;49.306;11.350;2023-02-18T04:49:30;96974.13;;;7.54;100.00
596;BME280;19946;49.306;11.350;2023-02-18T04:52:30;96972.03;;;7.46;100.00
596;BME280;19946;49.306;11.350;2023-02-18T04:55:31;96939.50;;;7.31;100.00
596;BME280;19946;49.306;11.350;2023-02-18T04:58:31;96969.34;;;7.48;100.00
596;BME280;19946;49.306;11.350;2023-02-18T05:01:31;96971.63;;;7.52;100.00
596;BME280;19946;49.306;11.350;2023-02-18T05:04:31;96878.19;;;6.96;100.00
596;BME280;19946;49.306;11.350;2023-02-18T05:07:32;96875.44;;;7.00;100.00
596;BME280;19946;49.306;11.350;2023-02-18T05:10:32;96961.59;;;7.48;100.00
596;BME280;19946;49.306;11.350;2023-02-18T05:13:33;96973.28;;;7.53;100.00
596;BME280;19946;49.306;11.350;2023-02-18T05:16:33;96960.09;;;7.45;100.00
596;BME280;19946;49.306;11.350;2023-02-18T05:19:34;96967.41;;;7.51;100.00
596;BME280;19946;49.306;11.350;2023-02-18T05:22:34;96877.91;;;7.01;100.00
596;BME280;19946;49.306;11.350;2023-02-18T05:25:34;96974.31;;;7.51;100.00
596;BME280;19946;49.306;11.350;2023-02-18T05:28:35;96965.47;;;7.55;100.00
596;BME280;19946;49.306;11.350;2023-02-18T05:31:35;96891.13;;;7.09;100.00
596;BME280;19946;49.306;11.350;2023-02-18T05:34:37;96927.28;;;7.35;100.00
596;BME280;19946;49.306;11.350;2023-02-18T05:37:37;96865.00;;;6.88;100.00
596;BME280;19946;49.306;11.350;2023-02-18T05:40:37;96962.97;;;7.53;100.00
596;BME280;19946;49.306;11.350;2023-02-18T05:43:38;96951.22;;;7.49;100.00
596;BME280;19946;49.306;11.350;2023-02-18T05:46:59;96945.72;;;7.41;100.00
596;BME280;19946;49.306;11.350;2023-02-18T05:49:59;96945.00;;;7.39;100.00
596;BME280;19946;49.306;11.350;2023-02-18T05:53:00;96876.16;;;7.02;100.00
596;BME280;19946;49.306;11.350;2023-02-18T05:56:00;96921.38;;;7.32;100.00
596;BME280;19946;49.306;11.350;2023-02-18T05:59:00;96857.78;;;6.93;100.00
596;BME280;19946;49.306;11.350;2023-02-18T06:02:01;96945.13;;;7.50;100.00
596;BME280;19946;49.306;11.350;2023-02-18T06:05:02;96942.72;;;7.35;100.00
596;BME280;19946;49.306;11.350;2023-02-18T06:08:03;96888.34;;;7.12;100.00
596;BME280;19946;49.306;11.350;2023-02-18T06:11:03;96888.34;;;7.12;100.00
596;BME280;19946;49.306;11.350;2023-02-18T06:14:04;96939.34;;;7.47;100.00
596;BME280;19946;49.306;11.350;2023-02-18T06:17:04;96884.22;;;7.10;100.00
596;BME280;19946;49.306;11.350;2023-02-18T06:20:05;96903.13;;;7.23;100.00
596;BME280;19946;49.306;11.350;2023-02-18T06:23:06;96836.22;;;6.82;100.00
596;BME280;19946;49.306;11.350;2023-02-18T06:26:06;96867.97;;;6.95;100.00
596;BME280;19946;49.306;11.350;2023-02-18T06:29:07;96957.06;;;7.39;100.00
596;BME280;19946;49.306;11.350;2023-02-18T06:32:07;96904.13;;;7.20;100.00
596;BME280;19946;49.306;11.350;2023-02-18T06:35:07;96939.84;;;7.39;100.00
596;BME280;19946;49.306;11.350;2023-02-18T06:38:08;96973.66;;;7.47;100.00
596;BME280;19946;49.306;11.350;2023-02-18T06:41:08;96961.81;;;7.45;100.00
596;BME280;19946;49.306;11.350;2023-02-18T06:44:09;96938.81;;;7.42;100.00
596;BME280;19946;49.306;11.350;2023-02-18T06:47:10;96880.09;;;7.07;100.00
596;BME280;19946;49.306;11.350;2023-02-18T06:50:10;96908.69;;;7.29;100.00
596;BME280;19946;49.306;11.350;2023-02-18T06:53:11;96905.69;;;7.23;100.00
596;BME280;19946;49.306;11.350;2023-02-18T06:56:11;96888.22;;;7.01;100.00
596;BME280;19946;49.306;11.350;2023-02-18T06:59:12;96940.16;;;7.47;100.00
596;BME280;19946;49.306;11.350;2023-02-18T07:02:13;96790.72;;;6.55;100.00
596;BME280;19946;49.306;11.350;2023-02-18T07:05:13;96893.00;;;7.20;100.00
596;BME280;19946;49.306;11.350;2023-02-18T07:08:13;96860.41;;;7.06;100.00
596;BME280;19946;49.306;11.350;2023-02-18T07:11:14;96924.34;;;7.53;100.00
596;BME280;19946;49.306;11.350;2023-02-18T07:14:14;96841.97;;;7.00;100.00
596;BME280;19946;49.306;11.350;2023-02-18T07:17:14;96926.81;;;7.55;100.00
596;BME280;19946;49.306;11.350;2023-02-18T07:20:15;96804.81;;;6.77;100.00
596;BME280;19946;49.306;11.350;2023-02-18T07:23:15;96743.88;;;6.50;100.00
596;BME280;19946;49.306;11.350;2023-02-18T07:26:16;96916.28;;;7.58;100.00
596;BME280;19946;49.306;11.350;2023-02-18T07:29:16;96924.66;;;7.61;100.00
596;BME280;19946;49.306;11.350;2023-02-18T07:32:18;96869.66;;;7.36;100.00
596;BME280;19946;49.306;11.350;2023-02-18T07:35:18;96912.78;;;7.59;100.00
596;BME280;19946;49.306;11.350;2023-02-18T07:38:21;96832.06;;;7.06;100.00
596;BME280;19946;49.306;11.350;2023-02-18T07:41:22;96859.34;;;7.23;100.00
596;BME280;19946;49.306;11.350;2023-02-18T07:44:22;96822.69;;;7.05;100.00
596;BME280;19946;49.306;11.350;2023-02-18T07:47:23;96857.59;;;7.23;100.00
596;BME280;19946;49.306;11.350;2023-02-18T07:50:23;96867.28;;;7.32;100.00
596;BME280;19946;49.306;11.350;2023-02-18T07:53:23;96891.75;;;7.52;100.00
596;BME280;19946;49.306;11.350;2023-02-18T07:56:24;96885.69;;;7.53;100.00
596;BME280;19946;49.306;11.350;2023-02-18T07:59:24;96863.38;;;7.40;100.00
596;BME280;19946;49.306;11.350;2023-02-18T08:02:25;96914.78;;;7.81;100.00
596;BME280;19946;49.306;11.350;2023-02-18T08:05:25;96908.19;;;7.77;100.00
596;BME280;19946;49.306;11.350;2023-02-18T08:08:28;96917.78;;;7.87;100.00
596;BME280;19946;49.306;11.350;2023-02-18T08:11:29;96916.13;;;7.86;100.00
596;BME280;19946;49.306;11.350;2023-02-18T08:14:29;96830.81;;;7.51;100.00
596;BME280;19946;49.306;11.350;2023-02-18T08:17:29;96882.63;;;7.86;100.00
596;BME280;19946;49.306;11.350;2023-02-18T08:20:30;96835.97;;;7.51;100.00
596;BME280;19946;49.306;11.350;2023-02-18T08:23:30;96898.59;;;8.04;100.00
596;BME280;19946;49.306;11.350;2023-02-18T08:26:31;96870.94;;;7.81;100.00
596;BME280;19946;49.306;11.350;2023-02-18T08:29:31;96881.69;;;7.87;100.00
596;BME280;19946;49.306;11.350;2023-02-18T08:32:31;96887.56;;;7.89;100.00
596;BME280;19946;49.306;11.350;2023-02-18T08:35:32;96775.03;;;7.25;100.00
596;BME280;19946;49.306;11.350;2023-02-18T08:38:33;96879.50;;;7.94;100.00
596;BME280;19946;49.306;11.350;2023-02-18T08:41:33;96882.41;;;8.02;100.00
596;BME280;19946;49.306;11.350;2023-02-18T08:44:33;96872.91;;;8.15;100.00
596;BME280;19946;49.306;11.350;2023-02-18T08:47:34;96824.44;;;7.95;100.00
596;BME280;19946;49.306;11.350;2023-02-18T08:50:34;96794.84;;;7.88;100.00
596;BME280;19946;49.306;11.350;2023-02-18T08:53:34;96862.69;;;8.39;100.00
596;BME280;19946;49.306;11.350;2023-02-18T08:56:35;96865.16;;;8.53;100.00
596;BME280;19946;49.306;11.350;2023-02-18T08:59:35;96780.22;;;8.25;100.00
596;BME280;19946;49.306;11.350;2023-02-18T09:02:35;96803.94;;;8.66;100.00
596;BME280;19946;49.306;11.350;2023-02-18T09:05:38;96856.53;;;8.89;100.00
596;BME280;19946;49.306;11.350;2023-02-18T09:08:38;96852.13;;;8.78;100.00
596;BME280;19946;49.306;11.350;2023-02-18T09:11:38;96841.00;;;9.02;100.00
596;BME280;19946;49.306;11.350;2023-02-18T09:14:39;96795.28;;;8.67;100.00
596;BME280;19946;49.306;11.350;2023-02-18T09:17:40;96833.97;;;9.04;100.00
596;BME280;19946;49.306;11.350;2023-02-18T09:20:40;96736.25;;;8.39;100.00
596;BME280;19946;49.306;11.350;2023-02-18T09:23:41;96727.69;;;8.38;100.00
596;BME280;19946;49.306;11.350;2023-02-18T09:26:41;96810.81;;;8.78;100.00
596;BME280;19946;49.306;11.350;2023-02-18T09:29:43;96824.03;;;8.87;100.00
596;BME280;19946;49.306;11.350;2023-02-18T09:32:43;96729.69;;;8.46;100.00
596;BME280;19946;49.306;11.350;2023-02-18T09:35:45;96784.63;;;8.96;100.00
596;BME280;19946;49.306;11.350;2023-02-18T09:38:46;96741.53;;;8.61;100.00
596;BME280;19946;49.306;11.350;2023-02-18T09:41:49;96656.84;;;8.19;100.00
596;BME280;19946;49.306;11.350;2023-02-18T09:44:53;96807.56;;;9.11;100.00
596;BME280;19946;49.306;11.350;2023-02-18T09:47:55;96806.53;;;9.14;100.00
596;BME280;19946;49.306;11.350;2023-02-18T09:50:56;96806.75;;;9.11;100.00
596;BME280;19946;49.306;11.350;2023-02-18T09:53:57;96776.94;;;8.83;100.00
596;BME280;19946;49.306;11.350;2023-02-18T09:56:58;96771.31;;;8.89;100.00
596;BME280;19946;49.306;11.350;2023-02-18T10:00:04;96711.63;;;8.46;100.00
596;BME280;19946;49.306;11.350;2023-02-18T10:03:14;96814.91;;;9.29;100.00
596;BME280;19946;49.306;11.350;2023-02-18T10:06:23;96806.44;;;9.27;100.00
596;BME280;19946;49.306;11.350;2023-02-18T10:09:29;96805.56;;;9.39;100.00
596;BME280;19946;49.306;11.350;2023-02-18T10:12:31;96808.28;;;9.48;100.00
596;BME280;19946;49.306;11.350;2023-02-18T10:15:31;96775.31;;;9.17;100.00
596;BME280;19946;49.306;11.350;2023-02-18T10:18:35;96737.75;;;8.89;100.00
596;BME280;19946;49.306;11.350;2023-02-18T10:21:39;96798.34;;;9.31;100.00
596;BME280;19946;49.306;11.350;2023-02-18T10:24:42;96734.97;;;9.03;100.00
596;BME280;19946;49.306;11.350;2023-02-18T10:27:43;96732.53;;;9.13;100.00
596;BME280;19946;49.306;11.350;2023-02-18T10:30:51;96775.50;;;9.60;100.00
596;BME280;19946;49.306;11.350;2023-02-18T10:34:12;96769.28;;;9.74;100.00
596;BME280;19946;49.306;11.350;2023-02-18T10:37:45;96646.28;;;8.81;100.00
596;BME280;19946;49.306;11.350;2023-02-18T10:41:00;96783.84;;;9.75;100.00
596;BME280;19946;49.306;11.350;2023-02-18T10:44:15;96712.63;;;9.37;100.00
596;BME280;19946;49.306;11.350;2023-02-18T10:47:42;96695.56;;;9.24;100.00
596;BME280;19946;49.306;11.350;2023-02-18T10:50:47;96711.91;;;9.46;100.00
596;BME280;19946;49.306;11.350;2023-02-18T10:53:50;96758.34;;;9.81;100.00
596;BME280;19946;49.306;11.350;2023-02-18T10:56:52;96731.66;;;9.92;100.00
596;BME280;19946;49.306;11.350;2023-02-18T11:00:21;96735.41;;;10.21;100.00
596;BME280;19946;49.306;11.350;2023-02-18T11:03:25;96708.47;;;10.13;100.00
596;BME280;19946;49.306;11.350;2023-02-18T11:06:33;96737.72;;;10.47;100.00
596;BME280;19946;49.306;11.350;2023-02-18T11:09:41;96757.81;;;10.54;100.00
596;BME280;19946;49.306;11.350;2023-02-18T11:12:43;96735.22;;;10.88;100.00
596;BME280;19946;49.306;11.350;2023-02-18T11:15:59;96743.63;;;10.81;100.00
596;BME280;19946;49.306;11.350;2023-02-18T11:19:00;96652.72;;;10.52;100.00
596;BME280;19946;49.306;11.350;2023-02-18T11:22:07;96710.00;;;11.11;100.00
596;BME280;19946;49.306;11.350;2023-02-18T11:25:23;96644.25;;;10.50;100.00
596;BME280;19946;49.306;11.350;2023-02-18T11:28:31;96708.78;;;11.15;100.00
596;BME280;19946;49.306;11.350;2023-02-18T11:31:44;96488.97;;;9.65;100.00
596;BME280;19946;49.306;11.350;2023-02-18T11:34:45;96573.31;;;10.20;100.00
596;BME280;19946;49.306;11.350;2023-02-18T11:37:46;96683.00;;;10.93;100.00
596;BME280;19946;49.306;11.350;2023-02-18T11:40:56;96597.16;;;10.56;100.00
596;BME280;19946;49.306;11.350;2023-02-18T11:44:00;96654.97;;;10.77;100.00
596;BME280;19946;49.306;11.350;2023-02-18T11:47:05;96680.22;;;11.06;100.00
596;BME280;19946;49.306;11.350;2023-02-18T11:56:30;96643.69;;;11.09;100.00
596;BME280;19946;49.306;11.350;2023-02-18T11:59:37;96616.38;;;11.05;100.00
596;BME280;19946;49.306;11.350;2023-02-18T12:02:39;96651.22;;;11.12;100.00
596;BME280;19946;49.306;11.350;2023-02-18T12:05:40;96621.84;;;11.02;100.00
596;BME280;19946;49.306;11.350;2023-02-18T12:08:48;96623.22;;;11.06;100.00
596;BME280;19946;49.306;11.350;2023-02-18T12:11:54;96550.28;;;10.80;100.00
596;BME280;19946;49.306;11.350;2023-02-18T12:14:58;96470.13;;;10.48;100.00
596;BME280;19946;49.306;11.350;2023-02-18T12:25:24;96612.75;;;11.47;100.00
596;BME280;19946;49.306;11.350;2023-02-18T12:28:40;96606.31;;;11.42;100.00
596;BME280;19946;49.306;11.350;2023-02-18T12:32:00;96619.34;;;11.61;100.00
596;BME280;19946;49.306;11.350;2023-02-18T12:35:28;96632.28;;;11.82;100.00
596;BME280;19946;49.306;11.350;2023-02-18T12:41:58;96532.50;;;11.06;100.00
596;BME280;19946;49.306;11.350;2023-02-18T13:01:34;96540.59;;;11.12;100.00
596;BME280;19946;49.306;11.350;2023-02-18T13:05:04;96625.81;;;11.36;100.00
596;BME280;19946;49.306;11.350;2023-02-18T13:14:55;96562.78;;;11.36;100.00
596;BME280;19946;49.306;11.350;2023-02-18T13:18:00;96544.69;;;11.55;100.00
596;BME280;19946;49.306;11.350;2023-02-18T13:21:14;96596.97;;;11.60;100.00
596;BME280;19946;49.306;11.350;2023-02-18T13:24:29;96600.47;;;11.49;100.00
596;BME280;19946;49.306;11.350;2023-02-18T13:41:47;96581.16;;;11.23;100.00
596;BME280;19946;49.306;11.350;2023-02-18T13:47:55;96495.97;;;10.69;100.00
596;BME280;19946;49.306;11.350;2023-02-18T13:51:02;96580.56;;;11.10;100.00
596;BME280;19946;49.306;11.350;2023-02-18T13:57:19;96499.31;;;10.39;100.00
596;BME280;19946;49.306;11.350;2023-02-18T14:00:23;96427.06;;;10.05;100.00
596;BME280;19946;49.306;11.350;2023-02-18T14:06:35;96575.09;;;10.82;100.00
596;BME280;19946;49.306;11.350;2023-02-18T14:09:38;96525.41;;;10.47;100.00
596;BME280;19946;49.306;11.350;2023-02-18T14:12:59;96594.19;;;10.81;100.00
596;BME280;19946;49.306;11.350;2023-02-18T14:16:00;96569.91;;;10.61;100.00
596;BME280;19946;49.306;11.350;2023-02-18T14:19:01;96500.56;;;10.35;100.00
596;BME280;19946;49.306;11.350;2023-02-18T14:22:25;96589.63;;;10.74;100.00
596;BME280;19946;49.306;11.350;2023-02-18T14:25:39;96598.75;;;10.68;100.00
596;BME280;19946;49.306;11.350;2023-02-18T14:28:52;96580.97;;;10.64;100.00
596;BME280;19946;49.306;11.350;2023-02-18T14:32:01;96587.44;;;10.69;100.00
596;BME280;19946;49.306;11.350;2023-02-18T14:35:25;96573.47;;;10.81;100.00
596;BME280;19946;49.306;11.350;2023-02-18T14:38:50;96508.75;;;10.40;100.00
596;BME280;19946;49.306;11.350;2023-02-18T14:48:49;96597.84;;;10.37;100.00
596;BME280;19946;49.306;11.350;2023-02-18T14:51:53;96603.84;;;10.38;100.00
596;BME280;19946;49.306;11.350;2023-02-18T14:54:57;96575.78;;;10.22;100.00
596;BME280;19946;49.306;11.350;2023-02-18T14:58:02;96420.63;;;9.26;100.00
596;BME280;19946;49.306;11.350;2023-02-18T15:01:06;96437.03;;;9.36;100.00
596;BME280;19946;49.306;11.350;2023-02-18T15:04:13;96584.31;;;10.34;100.00
596;BME280;19946;49.306;11.350;2023-02-18T15:07:17;96598.56;;;10.28;100.00
596;BME280;19946;49.306;11.350;2023-02-18T15:10:18;96533.91;;;9.85;100.00
596;BME280;19946;49.306;11.350;2023-02-18T15:13:42;96594.63;;;10.13;100.00
596;BME280;19946;49.306;11.350;2023-02-18T15:16:44;96501.69;;;9.57;100.00
596;BME280;19946;49.306;11.350;2023-02-18T15:19:50;96621.78;;;10.18;100.00
596;BME280;19946;49.306;11.350;2023-02-18T15:22:51;96596.25;;;9.82;100.00
596;BME280;19946;49.306;11.350;2023-02-18T15:25:52;96523.03;;;9.16;100.00
596;BME280;19946;49.306;11.350;2023-02-18T15:28:58;96528.81;;;8.97;100.00
596;BME280;19946;49.306;11.350;2023-02-18T15:31:59;96617.22;;;9.45;100.00
596;BME280;19946;49.306;11.350;2023-02-18T15:35:14;96538.56;;;8.94;100.00
596;BME280;19946;49.306;11.350;2023-02-18T15:38:19;96604.41;;;9.33;100.00
596;BME280;19946;49.306;11.350;2023-02-18T15:41:20;96603.59;;;9.32;100.00
596;BME280;19946;49.306;11.350;2023-02-18T15:44:24;96611.59;;;9.18;100.00
596;BME280;19946;49.306;11.350;2023-02-18T15:47:25;96558.25;;;8.61;100.00
596;BME280;19946;49.306;11.350;2023-02-18T15:50:36;96624.78;;;8.69;100.00
596;BME280;19946;49.306;11.350;2023-02-18T15:53:46;96579.56;;;8.17;100.00
596;BME280;19946;49.306;11.350;2023-02-18T15:56:50;96628.44;;;8.31;100.00
596;BME280;19946;49.306;11.350;2023-02-18T16:00:10;96660.22;;;8.32;100.00
596;BME280;19946;49.306;11.350;2023-02-18T16:06:28;96651.16;;;8.14;100.00
596;BME280;19946;49.306;11.350;2023-02-18T16:09:31;96659.09;;;7.99;100.00
596;BME280;19946;49.306;11.350;2023-02-18T16:12:33;96618.34;;;7.68;100.00
596;BME280;19946;49.306;11.350;2023-02-18T16:15:38;96669.00;;;7.93;100.00
596;BME280;19946;49.306;11.350;2023-02-18T16:18:40;96677.75;;;7.90;100.00
596;BME280;19946;49.306;11.350;2023-02-18T16:21:43;96531.25;;;7.00;100.00
596;BME280;19946;49.306;11.350;2023-02-18T16:24:48;96650.50;;;7.75;100.00
596;BME280;19946;49.306;11.350;2023-02-18T16:28:04;96635.16;;;7.61;100.00
596;BME280;19946;49.306;11.350;2023-02-18T16:31:07;96631.59;;;7.51;100.00
596;BME280;19946;49.306;11.350;2023-02-18T16:34:23;96668.53;;;7.75;100.00
596;BME280;19946;49.306;11.350;2023-02-18T16:37:23;96671.13;;;7.75;100.00
596;BME280;19946;49.306;11.350;2023-02-18T16:40:39;96657.03;;;7.55;100.00
596;BME280;19946;49.306;11.350;2023-02-18T16:43:40;96606.19;;;7.33;100.00
596;BME280;19946;49.306;11.350;2023-02-18T16:46:41;96596.44;;;7.13;100.00
596;BME280;19946;49.306;11.350;2023-02-18T16:49:44;96640.78;;;7.42;100.00
596;BME280;19946;49.306;11.350;2023-02-18T16:52:45;96677.50;;;7.69;100.00
596;BME280;19946;49.306;11.350;2023-02-18T16:55:48;96603.63;;;7.21;100.00
596;BME280;19946;49.306;11.350;2023-02-18T16:58:48;96690.44;;;7.57;100.00
596;BME280;19946;49.306;11.350;2023-02-18T17:01:49;96632.69;;;7.23;100.00
596;BME280;19946;49.306;11.350;2023-02-18T17:04:50;96626.91;;;7.19;100.00
596;BME280;19946;49.306;11.350;2023-02-18T17:08:10;96706.59;;;7.59;100.00
596;BME280;19946;49.306;11.350;2023-02-18T17:11:19;96698.38;;;7.54;100.00
596;BME280;19946;49.306;11.350;2023-02-18T17:14:21;96706.84;;;7.56;100.00
596;BME280;19946;49.306;11.350;2023-02-18T17:17:22;96699.41;;;7.51;100.00
596;BME280;19946;49.306;11.350;2023-02-18T17:20:22;96716.53;;;7.52;100.00
596;BME280;19946;49.306;11.350;2023-02-18T17:23:23;96665.72;;;7.16;100.00
596;BME280;19946;49.306;11.350;2023-02-18T17:26:26;96722.50;;;7.53;100.00
596;BME280;19946;49.306;11.350;2023-02-18T17:29:26;96678.94;;;7.24;100.00
596;BME280;19946;49.306;11.350;2023-02-18T17:32:27;96656.97;;;7.06;100.00
596;BME280;19946;49.306;11.350;2023-02-18T17:35:28;96717.44;;;7.39;100.00
596;BME280;19946;49.306;11.350;2023-02-18T17:38:29;96718.81;;;7.31;100.00
596;BME280;19946;49.306;11.350;2023-02-18T17:41:29;96679.44;;;7.04;100.00
596;BME280;19946;49.306;11.350;2023-02-18T17:44:29;96733.34;;;7.32;100.00
596;BME280;19946;49.306;11.350;2023-02-18T17:47:30;96725.59;;;7.20;100.00
596;BME280;19946;49.306;11.350;2023-02-18T17:50:30;96691.81;;;6.99;100.00
596;BME280;19946;49.306;11.350;2023-02-18T17:53:31;96753.41;;;7.27;100.00
596;BME280;19946;49.306;11.350;2023-02-18T17:56:31;96739.81;;;7.25;100.00
596;BME280;19946;49.306;11.350;2023-02-18T17:59:34;96661.28;;;6.68;100.00
596;BME280;19946;49.306;11.350;2023-02-18T18:02:34;96742.25;;;7.14;100.00